sensor_id;sensor_type;location;lat;lon;timestamp;P1;durP1;ratioP1;P2;durP2;ratioP2
37288;SDS011;23174;49.462;11.000;2023-02-01T00:01:57;3.42;;;2.10;;
37288;SDS011;23174;49.462;11.000;2023-02-01T00:03:58;2.33;;;2.13;;
37288;SDS011;23174;49.462;11.000;2023-02-01T00:05:58;3.10;;;2.10;;
37288;SDS011;23174;49.462;11.000;2023-02-01T00:07:59;2.50;;;2.30;;
37288;SDS011;23174;49.462;11.000;2023-02-01T00:10:00;2.47;;;2.30;;
37288;SDS011;23174;49.462;11.000;2023-02-01T00:12:01;2.67;;;2.10;;
37288;SDS011;23174;49.462;11.000;2023-02-01T00:14:02;2.60;;;2.40;;
37288;SDS011;23174;49.462;11.000;2023-02-01T00:16:16;2.50;;;2.30;;
37288;SDS011;23174;49.462;11.000;2023-02-01T00:18:19;2.15;;;1.98;;
37288;SDS011;23174;49.462;11.000;2023-02-01T00:20:20;3.10;;;2.20;;
37288;SDS011;23174;49.462;11.000;2023-02-01T00:22:20;2.30;;;2.10;;
37288;SDS011;23174;49.462;11.000;2023-02-01T00:24:21;2.85;;;2.28;;
37288;SDS011;23174;49.462;11.000;2023-02-01T00:26:35;1.90;;;1.80;;
37288;SDS011;23174;49.462;11.000;2023-02-01T00:28:40;4.30;;;2.10;;
37288;SDS011;23174;49.462;11.000;2023-02-01T00:30:41;2.10;;;2.00;;
37288;SDS011;23174;49.462;11.000;2023-02-01T00:32:41;2.20;;;2.03;;
37288;SDS011;23174;49.462;11.000;2023-02-01T00:34:42;2.38;;;2.15;;
37288;SDS011;23174;49.462;11.000;2023-02-01T00:36:43;2.45;;;1.92;;
37288;SDS011;23174;49.462;11.000;2023-02-01T00:38:44;1.98;;;1.80;;
37288;SDS011;23174;49.462;11.000;2023-02-01T00:40:45;2.10;;;1.90;;
37288;SDS011;23174;49.462;11.000;2023-02-01T00:42:45;2.13;;;1.52;;
37288;SDS011;23174;49.462;11.000;2023-02-01T00:44:46;2.00;;;1.83;;
37288;SDS011;23174;49.462;11.000;2023-02-01T00:46:47;3.05;;;2.10;;
37288;SDS011;23174;49.462;11.000;2023-02-01T00:48:47;2.15;;;1.90;;
37288;SDS011;23174;49.462;11.000;2023-02-01T00:50:48;2.20;;;2.00;;
37288;SDS011;23174;49.462;11.000;2023-02-01T00:52:49;1.90;;;1.80;;
37288;SDS011;23174;49.462;11.000;2023-02-01T00:54:50;2.10;;;2.00;;
37288;SDS011;23174;49.462;11.000;2023-02-01T00:56:50;1.70;;;1.60;;
37288;SDS011;23174;49.462;11.000;2023-02-01T00:58:51;2.47;;;2.28;;
37288;SDS011;23174;49.462;11.000;2023-02-01T01:01:05;2.00;;;1.90;;
37288;SDS011;23174;49.462;11.000;2023-02-01T01:03:07;4.10;;;2.05;;
37288;SDS011;23174;49.462;11.000;2023-02-01T01:05:17;2.15;;;1.95;;
37288;SDS011;23174;49.462;11.000;2023-02-01T01:07:18;2.20;;;2.10;;
37288;SDS011;23174;49.462;11.000;2023-02-01T01:09:18;2.75;;;2.42;;
37288;SDS011;23174;49.462;11.000;2023-02-01T01:11:20;2.45;;;1.80;;
37288;SDS011;23174;49.462;11.000;2023-02-01T01:13:23;2.95;;;2.10;;
37288;SDS011;23174;49.462;11.000;2023-02-01T01:15:24;2.65;;;2.00;;
37288;SDS011;23174;49.462;11.000;2023-02-01T01:17:27;1.80;;;1.70;;
37288;SDS011;23174;49.462;11.000;2023-02-01T01:19:28;2.38;;;1.92;;
37288;SDS011;23174;49.462;11.000;2023-02-01T01:21:29;2.00;;;1.90;;
37288;SDS011;23174;49.462;11.000;2023-02-01T01:23:30;2.20;;;2.00;;
37288;SDS011;23174;49.462;11.000;2023-02-01T01:25:30;2.58;;;2.10;;
37288;SDS011;23174;49.462;11.000;2023-02-01T01:27:31;2.22;;;1.92;;
37288;SDS011;23174;49.462;11.000;2023-02-01T01:29:32;2.80;;;2.60;;
37288;SDS011;23174;49.462;11.000;2023-02-01T01:31:32;2.33;;;2.15;;
37288;SDS011;23174;49.462;11.000;2023-02-01T01:33:33;1.80;;;1.70;;
37288;SDS011;23174;49.462;11.000;2023-02-01T01:35:34;2.30;;;2.10;;
37288;SDS011;23174;49.462;11.000;2023-02-01T01:37:34;2.22;;;1.90;;
37288;SDS011;23174;49.462;11.000;2023-02-01T01:39:35;2.20;;;2.00;;
37288;SDS011;23174;49.462;11.000;2023-02-01T01:41:36;2.03;;;1.83;;
37288;SDS011;23174;49.462;11.000;2023-02-01T01:43:47;3.88;;;2.38;;
37288;SDS011;23174;49.462;11.000;2023-02-01T01:45:54;2.13;;;2.03;;
37288;SDS011;23174;49.462;11.000;2023-02-01T01:48:16;1.90;;;1.80;;
37288;SDS011;23174;49.462;11.000;2023-02-01T01:50:29;2.40;;;2.20;;
37288;SDS011;23174;49.462;11.000;2023-02-01T01:52:36;2.40;;;2.20;;
37288;SDS011;23174;49.462;11.000;2023-02-01T01:54:38;2.30;;;1.95;;
37288;SDS011;23174;49.462;11.000;2023-02-01T01:56:43;2.08;;;1.95;;
37288;SDS011;23174;49.462;11.000;2023-02-01T01:58:45;1.70;;;1.60;;
37288;SDS011;23174;49.462;11.000;2023-02-01T02:00:46;1.83;;;1.70;;
37288;SDS011;23174;49.462;11.000;2023-02-01T02:02:48;1.92;;;1.83;;
37288;SDS011;23174;49.462;11.000;2023-02-01T02:04:57;2.28;;;2.08;;
37288;SDS011;23174;49.462;11.000;2023-02-01T02:07:01;2.05;;;1.90;;
37288;SDS011;23174;49.462;11.000;2023-02-01T02:09:05;1.95;;;1.85;;
37288;SDS011;23174;49.462;11.000;2023-02-01T02:11:06;1.80;;;1.70;;
37288;SDS011;23174;49.462;11.000;2023-02-01T02:13:07;2.13;;;1.92;;
37288;SDS011;23174;49.462;11.000;2023-02-01T02:15:08;1.80;;;1.70;;
37288;SDS011;23174;49.462;11.000;2023-02-01T02:17:34;2.13;;;1.75;;
37288;SDS011;23174;49.462;11.000;2023-02-01T02:28:51;2.22;;;1.83;;
37288;SDS011;23174;49.462;11.000;2023-02-01T02:36:05;1.70;;;1.60;;
37288;SDS011;23174;49.462;11.000;2023-02-01T02:38:13;1.80;;;1.60;;
37288;SDS011;23174;49.462;11.000;2023-02-01T02:45:30;3.08;;;1.88;;
37288;SDS011;23174;49.462;11.000;2023-02-01T02:49:18;2.40;;;2.20;;
37288;SDS011;23174;49.462;11.000;2023-02-01T02:51:05;2.00;;;1.90;;
37288;SDS011;23174;49.462;11.000;2023-02-01T02:55:57;1.95;;;1.80;;
37288;SDS011;23174;49.462;11.000;2023-02-01T02:58:17;2.97;;;1.77;;
37288;SDS011;23174;49.462;11.000;2023-02-01T03:00:38;1.73;;;1.63;;
37288;SDS011;23174;49.462;11.000;2023-02-01T03:02:58;2.20;;;2.00;;
37288;SDS011;23174;49.462;11.000;2023-02-01T03:05:17;3.25;;;2.22;;
37288;SDS011;23174;49.462;11.000;2023-02-01T03:09:53;1.88;;;1.77;;
37288;SDS011;23174;49.462;11.000;2023-02-01T03:11:57;1.90;;;1.80;;
37288;SDS011;23174;49.462;11.000;2023-02-01T03:14:21;2.03;;;1.73;;
37288;SDS011;23174;49.462;11.000;2023-02-01T03:18:35;2.00;;;1.80;;
37288;SDS011;23174;49.462;11.000;2023-02-01T03:20:43;1.88;;;1.77;;
37288;SDS011;23174;49.462;11.000;2023-02-01T03:22:46;2.65;;;1.98;;
37288;SDS011;23174;49.462;11.000;2023-02-01T03:25:03;1.73;;;1.50;;
37288;SDS011;23174;49.462;11.000;2023-02-01T03:27:16;2.65;;;2.13;;
37288;SDS011;23174;49.462;11.000;2023-02-01T03:29:46;1.80;;;1.70;;
37288;SDS011;23174;49.462;11.000;2023-02-01T03:31:49;3.67;;;1.85;;
37288;SDS011;23174;49.462;11.000;2023-02-01T03:33:50;1.88;;;1.77;;
37288;SDS011;23174;49.462;11.000;2023-02-01T03:38:07;2.25;;;2.08;;
37288;SDS011;23174;49.462;11.000;2023-02-01T03:40:12;2.45;;;2.25;;
37288;SDS011;23174;49.462;11.000;2023-02-01T03:42:19;2.97;;;2.30;;
37288;SDS011;23174;49.462;11.000;2023-02-01T03:46:52;2.78;;;2.38;;
37288;SDS011;23174;49.462;11.000;2023-02-01T03:51:02;2.85;;;2.38;;
37288;SDS011;23174;49.462;11.000;2023-02-01T03:53:06;2.20;;;2.10;;
37288;SDS011;23174;49.462;11.000;2023-02-01T03:55:10;2.70;;;2.42;;
37288;SDS011;23174;49.462;11.000;2023-02-01T03:57:14;2.72;;;2.40;;
37288;SDS011;23174;49.462;11.000;2023-02-01T03:59:19;2.60;;;2.38;;
37288;SDS011;23174;49.462;11.000;2023-02-01T04:01:20;3.42;;;2.42;;
37288;SDS011;23174;49.462;11.000;2023-02-01T04:03:20;2.75;;;2.30;;
37288;SDS011;23174;49.462;11.000;2023-02-01T04:05:21;2.45;;;2.25;;
37288;SDS011;23174;49.462;11.000;2023-02-01T04:07:22;2.58;;;2.42;;
37288;SDS011;23174;49.462;11.000;2023-02-01T04:09:23;2.88;;;2.65;;
37288;SDS011;23174;49.462;11.000;2023-02-01T04:11:23;2.60;;;2.40;;
37288;SDS011;23174;49.462;11.000;2023-02-01T04:13:24;2.75;;;2.33;;
37288;SDS011;23174;49.462;11.000;2023-02-01T04:15:24;2.90;;;2.08;;
37288;SDS011;23174;49.462;11.000;2023-02-01T04:17:25;3.35;;;2.40;;
37288;SDS011;23174;49.462;11.000;2023-02-01T04:19:25;2.92;;;2.70;;
37288;SDS011;23174;49.462;11.000;2023-02-01T04:21:26;2.90;;;2.40;;
37288;SDS011;23174;49.462;11.000;2023-02-01T04:23:28;2.80;;;2.25;;
37288;SDS011;23174;49.462;11.000;2023-02-01T04:25:29;2.42;;;2.15;;
37288;SDS011;23174;49.462;11.000;2023-02-01T04:27:30;2.75;;;2.55;;
37288;SDS011;23174;49.462;11.000;2023-02-01T04:29:30;2.47;;;2.28;;
37288;SDS011;23174;49.462;11.000;2023-02-01T04:31:31;3.90;;;2.30;;
37288;SDS011;23174;49.462;11.000;2023-02-01T04:33:31;4.05;;;2.80;;
37288;SDS011;23174;49.462;11.000;2023-02-01T04:35:32;2.35;;;2.20;;
37288;SDS011;23174;49.462;11.000;2023-02-01T04:37:33;3.45;;;2.15;;
37288;SDS011;23174;49.462;11.000;2023-02-01T04:39:34;2.55;;;2.35;;
37288;SDS011;23174;49.462;11.000;2023-02-01T04:41:35;2.30;;;2.10;;
37288;SDS011;23174;49.462;11.000;2023-02-01T04:43:35;2.20;;;2.00;;
37288;SDS011;23174;49.462;11.000;2023-02-01T04:45:36;5.82;;;2.60;;
37288;SDS011;23174;49.462;11.000;2023-02-01T04:47:36;2.55;;;2.35;;
37288;SDS011;23174;49.462;11.000;2023-02-01T04:49:37;2.20;;;2.10;;
37288;SDS011;23174;49.462;11.000;2023-02-01T04:51:38;2.92;;;2.65;;
37288;SDS011;23174;49.462;11.000;2023-02-01T04:53:39;3.05;;;2.80;;
37288;SDS011;23174;49.462;11.000;2023-02-01T04:55:39;3.72;;;2.72;;
37288;SDS011;23174;49.462;11.000;2023-02-01T04:57:43;2.55;;;2.25;;
37288;SDS011;23174;49.462;11.000;2023-02-01T04:59:44;2.30;;;2.10;;
37288;SDS011;23174;49.462;11.000;2023-02-01T05:01:44;2.22;;;2.00;;
37288;SDS011;23174;49.462;11.000;2023-02-01T05:03:45;2.70;;;2.50;;
37288;SDS011;23174;49.462;11.000;2023-02-01T05:05:47;2.38;;;2.10;;
37288;SDS011;23174;49.462;11.000;2023-02-01T05:07:48;2.38;;;2.20;;
37288;SDS011;23174;49.462;11.000;2023-02-01T05:09:49;2.10;;;2.00;;
37288;SDS011;23174;49.462;11.000;2023-02-01T05:11:49;4.25;;;2.50;;
37288;SDS011;23174;49.462;11.000;2023-02-01T05:14:09;2.22;;;2.10;;
37288;SDS011;23174;49.462;11.000;2023-02-01T05:16:09;2.38;;;2.17;;
37288;SDS011;23174;49.462;11.000;2023-02-01T05:18:10;1.98;;;1.88;;
37288;SDS011;23174;49.462;11.000;2023-02-01T05:20:10;2.17;;;2.08;;
37288;SDS011;23174;49.462;11.000;2023-02-01T05:22:11;2.67;;;2.45;;
37288;SDS011;23174;49.462;11.000;2023-02-01T05:24:12;2.40;;;2.22;;
37288;SDS011;23174;49.462;11.000;2023-02-01T05:26:13;2.53;;;2.33;;
37288;SDS011;23174;49.462;11.000;2023-02-01T05:28:14;2.75;;;2.33;;
37288;SDS011;23174;49.462;11.000;2023-02-01T05:30:14;3.63;;;2.67;;
37288;SDS011;23174;49.462;11.000;2023-02-01T05:32:15;2.25;;;2.03;;
37288;SDS011;23174;49.462;11.000;2023-02-01T05:34:16;2.58;;;2.38;;
37288;SDS011;23174;49.462;11.000;2023-02-01T05:36:16;2.30;;;1.73;;
37288;SDS011;23174;49.462;11.000;2023-02-01T05:38:17;1.98;;;1.88;;
37288;SDS011;23174;49.462;11.000;2023-02-01T05:40:18;2.30;;;2.10;;
37288;SDS011;23174;49.462;11.000;2023-02-01T05:42:18;2.42;;;2.22;;
37288;SDS011;23174;49.462;11.000;2023-02-01T05:44:19;1.90;;;1.80;;
37288;SDS011;23174;49.462;11.000;2023-02-01T05:46:20;2.88;;;2.67;;
37288;SDS011;23174;49.462;11.000;2023-02-01T05:48:21;2.58;;;2.38;;
37288;SDS011;23174;49.462;11.000;2023-02-01T05:50:21;2.30;;;2.10;;
37288;SDS011;23174;49.462;11.000;2023-02-01T05:52:22;2.45;;;2.25;;
37288;SDS011;23174;49.462;11.000;2023-02-01T05:54:23;2.95;;;2.17;;
37288;SDS011;23174;49.462;11.000;2023-02-01T05:56:23;1.95;;;1.85;;
37288;SDS011;23174;49.462;11.000;2023-02-01T05:58:24;1.88;;;1.73;;
37288;SDS011;23174;49.462;11.000;2023-02-01T06:00:24;1.95;;;1.65;;
37288;SDS011;23174;49.462;11.000;2023-02-01T06:02:28;1.30;;;1.20;;
37288;SDS011;23174;49.462;11.000;2023-02-01T06:04:28;2.90;;;1.10;;
37288;SDS011;23174;49.462;11.000;2023-02-01T06:06:29;2.95;;;1.65;;
37288;SDS011;23174;49.462;11.000;2023-02-01T06:08:29;1.30;;;1.20;;
37288;SDS011;23174;49.462;11.000;2023-02-01T06:10:30;1.17;;;1.08;;
37288;SDS011;23174;49.462;11.000;2023-02-01T06:12:31;1.52;;;1.40;;
37288;SDS011;23174;49.462;11.000;2023-02-01T06:14:31;1.33;;;1.13;;
37288;SDS011;23174;49.462;11.000;2023-02-01T06:16:32;1.00;;;1.00;;
37288;SDS011;23174;49.462;11.000;2023-02-01T06:18:33;1.50;;;1.40;;
37288;SDS011;23174;49.462;11.000;2023-02-01T06:20:34;1.10;;;1.00;;
37288;SDS011;23174;49.462;11.000;2023-02-01T06:22:35;1.17;;;1.15;;
37288;SDS011;23174;49.462;11.000;2023-02-01T06:24:35;1.25;;;1.13;;
37288;SDS011;23174;49.462;11.000;2023-02-01T06:26:36;0.82;;;0.82;;
37288;SDS011;23174;49.462;11.000;2023-02-01T06:28:37;1.10;;;1.10;;
37288;SDS011;23174;49.462;11.000;2023-02-01T06:30:39;0.70;;;0.70;;
37288;SDS011;23174;49.462;11.000;2023-02-01T06:32:43;1.55;;;0.90;;
37288;SDS011;23174;49.462;11.000;2023-02-01T06:34:43;1.33;;;1.23;;
37288;SDS011;23174;49.462;11.000;2023-02-01T06:36:44;1.58;;;0.80;;
37288;SDS011;23174;49.462;11.000;2023-02-01T06:38:44;1.83;;;0.88;;
37288;SDS011;23174;49.462;11.000;2023-02-01T06:40:45;0.70;;;0.70;;
37288;SDS011;23174;49.462;11.000;2023-02-01T06:42:52;1.48;;;0.70;;
37288;SDS011;23174;49.462;11.000;2023-02-01T06:44:53;0.85;;;0.85;;
37288;SDS011;23174;49.462;11.000;2023-02-01T06:46:53;0.95;;;0.85;;
37288;SDS011;23174;49.462;11.000;2023-02-01T06:48:54;0.85;;;0.85;;
37288;SDS011;23174;49.462;11.000;2023-02-01T06:50:55;0.90;;;0.85;;
37288;SDS011;23174;49.462;11.000;2023-02-01T06:52:56;0.70;;;0.70;;
37288;SDS011;23174;49.462;11.000;2023-02-01T06:54:56;1.67;;;1.02;;
37288;SDS011;23174;49.462;11.000;2023-02-01T06:56:57;0.70;;;0.70;;
37288;SDS011;23174;49.462;11.000;2023-02-01T06:58:58;1.15;;;1.15;;
37288;SDS011;23174;49.462;11.000;2023-02-01T07:01:04;1.27;;;1.17;;
37288;SDS011;23174;49.462;11.000;2023-02-01T07:03:05;1.08;;;1.08;;
37288;SDS011;23174;49.462;11.000;2023-02-01T07:05:06;1.20;;;1.10;;
37288;SDS011;23174;49.462;11.000;2023-02-01T07:07:07;0.95;;;0.88;;
37288;SDS011;23174;49.462;11.000;2023-02-01T07:09:08;1.10;;;1.10;;
37288;SDS011;23174;49.462;11.000;2023-02-01T07:11:10;1.45;;;1.35;;
37288;SDS011;23174;49.462;11.000;2023-02-01T07:13:15;1.08;;;1.08;;
37288;SDS011;23174;49.462;11.000;2023-02-01T07:15:15;1.17;;;1.10;;
37288;SDS011;23174;49.462;11.000;2023-02-01T07:17:16;1.30;;;1.20;;
37288;SDS011;23174;49.462;11.000;2023-02-01T07:19:16;0.70;;;0.70;;
37288;SDS011;23174;49.462;11.000;2023-02-01T07:21:17;2.33;;;0.60;;
37288;SDS011;23174;49.462;11.000;2023-02-01T07:23:19;0.98;;;0.98;;
37288;SDS011;23174;49.462;11.000;2023-02-01T07:25:20;0.65;;;0.65;;
37288;SDS011;23174;49.462;11.000;2023-02-01T07:27:20;2.35;;;0.80;;
37288;SDS011;23174;49.462;11.000;2023-02-01T07:29:21;0.77;;;0.77;;
37288;SDS011;23174;49.462;11.000;2023-02-01T07:31:21;1.45;;;1.13;;
37288;SDS011;23174;49.462;11.000;2023-02-01T07:33:23;1.30;;;1.20;;
37288;SDS011;23174;49.462;11.000;2023-02-01T07:35:24;0.90;;;0.90;;
37288;SDS011;23174;49.462;11.000;2023-02-01T07:37:24;1.45;;;1.02;;
37288;SDS011;23174;49.462;11.000;2023-02-01T07:39:25;0.85;;;0.85;;
37288;SDS011;23174;49.462;11.000;2023-02-01T07:41:28;1.02;;;1.00;;
37288;SDS011;23174;49.462;11.000;2023-02-01T07:43:28;1.17;;;1.08;;
37288;SDS011;23174;49.462;11.000;2023-02-01T07:45:30;1.25;;;0.93;;
37288;SDS011;23174;49.462;11.000;2023-02-01T07:47:30;1.77;;;1.60;;
37288;SDS011;23174;49.462;11.000;2023-02-01T07:49:31;2.53;;;1.20;;
37288;SDS011;23174;49.462;11.000;2023-02-01T07:51:31;2.22;;;1.40;;
37288;SDS011;23174;49.462;11.000;2023-02-01T07:53:32;2.35;;;1.40;;
37288;SDS011;23174;49.462;11.000;2023-02-01T07:55:34;2.58;;;0.95;;
37288;SDS011;23174;49.462;11.000;2023-02-01T07:57:38;1.40;;;1.20;;
37288;SDS011;23174;49.462;11.000;2023-02-01T07:59:38;2.22;;;1.05;;
37288;SDS011;23174;49.462;11.000;2023-02-01T08:01:59;1.50;;;0.88;;
37288;SDS011;23174;49.462;11.000;2023-02-01T08:04:00;1.98;;;1.25;;
37288;SDS011;23174;49.462;11.000;2023-02-01T08:06:02;3.97;;;1.23;;
37288;SDS011;23174;49.462;11.000;2023-02-01T08:08:03;3.63;;;1.20;;
37288;SDS011;23174;49.462;11.000;2023-02-01T08:10:04;2.22;;;1.35;;
37288;SDS011;23174;49.462;11.000;2023-02-01T08:12:10;2.08;;;1.70;;
37288;SDS011;23174;49.462;11.000;2023-02-01T08:14:11;2.60;;;0.98;;
37288;SDS011;23174;49.462;11.000;2023-02-01T08:16:12;2.60;;;1.50;;
37288;SDS011;23174;49.462;11.000;2023-02-01T08:18:14;1.25;;;0.90;;
37288;SDS011;23174;49.462;11.000;2023-02-01T08:20:19;1.25;;;0.82;;
37288;SDS011;23174;49.462;11.000;2023-02-01T08:22:21;1.63;;;1.45;;
37288;SDS011;23174;49.462;11.000;2023-02-01T08:24:22;2.28;;;1.27;;
37288;SDS011;23174;49.462;11.000;2023-02-01T08:26:23;2.00;;;1.02;;
37288;SDS011;23174;49.462;11.000;2023-02-01T08:28:25;1.55;;;0.82;;
37288;SDS011;23174;49.462;11.000;2023-02-01T08:30:26;2.10;;;1.10;;
37288;SDS011;23174;49.462;11.000;2023-02-01T08:32:27;2.50;;;0.82;;
37288;SDS011;23174;49.462;11.000;2023-02-01T08:34:28;2.85;;;1.00;;
37288;SDS011;23174;49.462;11.000;2023-02-01T08:36:29;1.83;;;1.05;;
37288;SDS011;23174;49.462;11.000;2023-02-01T08:38:31;2.53;;;1.00;;
37288;SDS011;23174;49.462;11.000;2023-02-01T08:40:32;0.55;;;0.10;;
37288;SDS011;23174;49.462;11.000;2023-02-01T08:42:33;0.30;;;0.17;;
37288;SDS011;23174;49.462;11.000;2023-02-01T08:44:52;0.30;;;0.27;;
37288;SDS011;23174;49.462;11.000;2023-02-01T08:46:52;0.10;;;0.10;;
37288;SDS011;23174;49.462;11.000;2023-02-01T08:48:53;0.43;;;0.28;;
37288;SDS011;23174;49.462;11.000;2023-02-01T08:50:53;0.30;;;0.30;;
37288;SDS011;23174;49.462;11.000;2023-02-01T08:52:54;0.10;;;0.05;;
37288;SDS011;23174;49.462;11.000;2023-02-01T08:54:54;0.15;;;0.15;;
37288;SDS011;23174;49.462;11.000;2023-02-01T08:56:55;0.05;;;0.05;;
37288;SDS011;23174;49.462;11.000;2023-02-01T08:58:56;0.47;;;0.38;;
37288;SDS011;23174;49.462;11.000;2023-02-01T09:00:56;0.30;;;0.15;;
37288;SDS011;23174;49.462;11.000;2023-02-01T09:03:02;0.35;;;0.15;;
37288;SDS011;23174;49.462;11.000;2023-02-01T09:05:03;0.30;;;0.20;;
37288;SDS011;23174;49.462;11.000;2023-02-01T09:07:04;0.20;;;0.20;;
37288;SDS011;23174;49.462;11.000;2023-02-01T09:09:05;0.20;;;0.17;;
37288;SDS011;23174;49.462;11.000;2023-02-01T09:11:07;0.25;;;0.13;;
37288;SDS011;23174;49.462;11.000;2023-02-01T09:13:11;0.28;;;0.10;;
37288;SDS011;23174;49.462;11.000;2023-02-01T09:15:11;0.50;;;0.28;;
37288;SDS011;23174;49.462;11.000;2023-02-01T09:17:12;2.67;;;0.22;;
37288;SDS011;23174;49.462;11.000;2023-02-01T09:19:13;0.35;;;0.35;;
37288;SDS011;23174;49.462;11.000;2023-02-01T09:21:14;0.22;;;0.20;;
37288;SDS011;23174;49.462;11.000;2023-02-01T09:23:14;0.22;;;0.22;;
37288;SDS011;23174;49.462;11.000;2023-02-01T09:25:15;0.00;;;0.00;;
37288;SDS011;23174;49.462;11.000;2023-02-01T09:27:16;0.55;;;0.45;;
37288;SDS011;23174;49.462;11.000;2023-02-01T09:29:16;0.40;;;0.40;;
37288;SDS011;23174;49.462;11.000;2023-02-01T09:31:17;2.30;;;0.50;;
37288;SDS011;23174;49.462;11.000;2023-02-01T09:33:18;0.40;;;0.40;;
37288;SDS011;23174;49.462;11.000;2023-02-01T09:35:21;0.32;;;0.32;;
37288;SDS011;23174;49.462;11.000;2023-02-01T09:37:21;0.75;;;0.35;;
37288;SDS011;23174;49.462;11.000;2023-02-01T09:39:22;1.15;;;0.28;;
37288;SDS011;23174;49.462;11.000;2023-02-01T09:41:26;0.77;;;0.70;;
37288;SDS011;23174;49.462;11.000;2023-02-01T09:44:02;0.38;;;0.38;;
37288;SDS011;23174;49.462;11.000;2023-02-01T09:46:20;0.75;;;0.40;;
37288;SDS011;23174;49.462;11.000;2023-02-01T09:48:26;0.10;;;0.10;;
37288;SDS011;23174;49.462;11.000;2023-02-01T09:50:34;1.08;;;0.20;;
37288;SDS011;23174;49.462;11.000;2023-02-01T09:52:42;1.10;;;0.30;;
37288;SDS011;23174;49.462;11.000;2023-02-01T09:54:50;0.40;;;0.30;;
37288;SDS011;23174;49.462;11.000;2023-02-01T10:01:26;0.10;;;0.10;;
37288;SDS011;23174;49.462;11.000;2023-02-01T10:03:35;0.25;;;0.10;;
37288;SDS011;23174;49.462;11.000;2023-02-01T10:06:14;0.43;;;0.38;;
37288;SDS011;23174;49.462;11.000;2023-02-01T10:10:55;0.75;;;0.10;;
37288;SDS011;23174;49.462;11.000;2023-02-01T10:20:21;2.92;;;2.15;;
37288;SDS011;23174;49.462;11.000;2023-02-01T10:22:46;3.85;;;1.70;;
37288;SDS011;23174;49.462;11.000;2023-02-01T10:24:59;3.70;;;1.95;;
37288;SDS011;23174;49.462;11.000;2023-02-01T10:29:44;5.47;;;1.92;;
37288;SDS011;23174;49.462;11.000;2023-02-01T10:31:47;8.00;;;2.22;;
37288;SDS011;23174;49.462;11.000;2023-02-01T10:33:52;4.85;;;1.70;;
37288;SDS011;23174;49.462;11.000;2023-02-01T10:36:05;5.15;;;2.40;;
37288;SDS011;23174;49.462;11.000;2023-02-01T10:38:19;3.08;;;1.77;;
37288;SDS011;23174;49.462;11.000;2023-02-01T10:40:28;6.22;;;2.10;;
37288;SDS011;23174;49.462;11.000;2023-02-01T10:42:29;5.22;;;2.33;;
37288;SDS011;23174;49.462;11.000;2023-02-01T10:44:30;4.90;;;2.35;;
37288;SDS011;23174;49.462;11.000;2023-02-01T10:46:43;4.50;;;2.30;;
37288;SDS011;23174;49.462;11.000;2023-02-01T10:48:43;5.75;;;2.20;;
37288;SDS011;23174;49.462;11.000;2023-02-01T10:50:49;4.50;;;2.25;;
37288;SDS011;23174;49.462;11.000;2023-02-01T10:53:03;5.00;;;2.42;;
37288;SDS011;23174;49.462;11.000;2023-02-01T10:55:32;4.95;;;2.28;;
37288;SDS011;23174;49.462;11.000;2023-02-01T10:57:33;9.80;;;3.53;;
37288;SDS011;23174;49.462;11.000;2023-02-01T10:59:34;5.13;;;2.17;;
37288;SDS011;23174;49.462;11.000;2023-02-01T11:01:39;3.28;;;1.90;;
37288;SDS011;23174;49.462;11.000;2023-02-01T11:05:51;3.50;;;1.73;;
37288;SDS011;23174;49.462;11.000;2023-02-01T11:07:53;2.50;;;1.48;;
37288;SDS011;23174;49.462;11.000;2023-02-01T11:09:59;3.83;;;1.90;;
37288;SDS011;23174;49.462;11.000;2023-02-01T11:12:01;3.47;;;2.33;;
37288;SDS011;23174;49.462;11.000;2023-02-01T11:14:12;6.55;;;2.15;;
37288;SDS011;23174;49.462;11.000;2023-02-01T11:16:15;4.68;;;2.47;;
37288;SDS011;23174;49.462;11.000;2023-02-01T11:18:17;4.45;;;2.20;;
37288;SDS011;23174;49.462;11.000;2023-02-01T11:20:21;5.68;;;1.70;;
37288;SDS011;23174;49.462;11.000;2023-02-01T11:22:33;4.10;;;1.73;;
37288;SDS011;23174;49.462;11.000;2023-02-01T11:24:35;6.70;;;2.22;;
37288;SDS011;23174;49.462;11.000;2023-02-01T11:26:39;4.65;;;2.45;;
37288;SDS011;23174;49.462;11.000;2023-02-01T11:28:43;5.05;;;2.22;;
37288;SDS011;23174;49.462;11.000;2023-02-01T11:30:51;4.53;;;2.08;;
37288;SDS011;23174;49.462;11.000;2023-02-01T11:32:54;3.67;;;1.88;;
37288;SDS011;23174;49.462;11.000;2023-02-01T11:34:57;6.78;;;2.70;;
37288;SDS011;23174;49.462;11.000;2023-02-01T11:37:01;5.90;;;2.30;;
37288;SDS011;23174;49.462;11.000;2023-02-01T11:41:22;3.97;;;1.75;;
37288;SDS011;23174;49.462;11.000;2023-02-01T11:43:25;5.65;;;2.35;;
37288;SDS011;23174;49.462;11.000;2023-02-01T11:45:28;5.72;;;1.98;;
37288;SDS011;23174;49.462;11.000;2023-02-01T11:47:31;3.22;;;1.40;;
37288;SDS011;23174;49.462;11.000;2023-02-01T11:49:39;6.10;;;2.47;;
37288;SDS011;23174;49.462;11.000;2023-02-01T11:52:29;3.28;;;1.40;;
37288;SDS011;23174;49.462;11.000;2023-02-01T11:54:19;4.30;;;1.88;;
37288;SDS011;23174;49.462;11.000;2023-02-01T11:59:08;6.40;;;3.15;;
37288;SDS011;23174;49.462;11.000;2023-02-01T12:01:43;4.22;;;2.38;;
37288;SDS011;23174;49.462;11.000;2023-02-01T12:06:41;4.90;;;2.10;;
37288;SDS011;23174;49.462;11.000;2023-02-01T12:08:56;3.63;;;1.90;;
37288;SDS011;23174;49.462;11.000;2023-02-01T12:13:38;5.00;;;1.70;;
37288;SDS011;23174;49.462;11.000;2023-02-01T12:16:09;4.78;;;2.00;;
37288;SDS011;23174;49.462;11.000;2023-02-01T12:22:48;5.15;;;2.38;;
37288;SDS011;23174;49.462;11.000;2023-02-01T12:42:19;3.92;;;2.10;;
37288;SDS011;23174;49.462;11.000;2023-02-01T12:44:28;5.60;;;2.08;;
37288;SDS011;23174;49.462;11.000;2023-02-01T12:46:33;5.10;;;2.25;;
37288;SDS011;23174;49.462;11.000;2023-02-01T12:51:21;5.60;;;2.05;;
37288;SDS011;23174;49.462;11.000;2023-02-01T12:53:28;3.42;;;1.92;;
37288;SDS011;23174;49.462;11.000;2023-02-01T12:55:37;4.00;;;2.05;;
37288;SDS011;23174;49.462;11.000;2023-02-01T12:57:44;4.18;;;1.92;;
37288;SDS011;23174;49.462;11.000;2023-02-01T13:06:25;6.07;;;2.05;;
37288;SDS011;23174;49.462;11.000;2023-02-01T13:08:35;3.47;;;1.67;;
37288;SDS011;23174;49.462;11.000;2023-02-01T13:11:03;5.75;;;2.08;;
37288;SDS011;23174;49.462;11.000;2023-02-01T13:17:21;0.35;;;0.25;;
37288;SDS011;23174;49.462;11.000;2023-02-01T13:21:56;0.40;;;0.30;;
37288;SDS011;23174;49.462;11.000;2023-02-01T13:24:03;1.65;;;0.50;;
37288;SDS011;23174;49.462;11.000;2023-02-01T13:26:04;0.00;;;0.00;;
37288;SDS011;23174;49.462;11.000;2023-02-01T13:28:12;0.63;;;0.55;;
37288;SDS011;23174;49.462;11.000;2023-02-01T13:30:23;1.55;;;1.08;;
37288;SDS011;23174;49.462;11.000;2023-02-01T13:32:37;0.98;;;0.73;;
37288;SDS011;23174;49.462;11.000;2023-02-01T13:37:37;0.82;;;0.80;;
37288;SDS011;23174;49.462;11.000;2023-02-01T13:39:59;0.30;;;0.25;;
37288;SDS011;23174;49.462;11.000;2023-02-01T13:42:27;0.28;;;0.28;;
37288;SDS011;23174;49.462;11.000;2023-02-01T13:44:38;0.40;;;0.35;;
37288;SDS011;23174;49.462;11.000;2023-02-01T13:46:44;0.43;;;0.43;;
37288;SDS011;23174;49.462;11.000;2023-02-01T13:50:54;2.78;;;0.73;;
37288;SDS011;23174;49.462;11.000;2023-02-01T13:52:58;2.05;;;0.80;;
37288;SDS011;23174;49.462;11.000;2023-02-01T13:55:43;0.30;;;0.30;;
37288;SDS011;23174;49.462;11.000;2023-02-01T13:57:37;1.98;;;0.50;;
37288;SDS011;23174;49.462;11.000;2023-02-01T14:01:40;1.35;;;0.57;;
37288;SDS011;23174;49.462;11.000;2023-02-01T14:03:44;0.45;;;0.43;;
37288;SDS011;23174;49.462;11.000;2023-02-01T14:08:02;0.65;;;0.40;;
37288;SDS011;23174;49.462;11.000;2023-02-01T14:12:45;0.88;;;0.57;;